sensor_id;sensor_type;location;lat;lon;timestamp;P1;durP1;ratioP1;P2;durP2;ratioP2
53833;SDS011;39735;51.432;5.482;2024-03-23T00:54:49;21.17;;;4.90;;
53833;SDS011;39735;51.432;5.482;2024-03-23T00:58:13;11.50;;;4.32;;
53833;SDS011;39735;51.432;5.482;2024-03-23T01:01:37;22.88;;;7.47;;
53833;SDS011;39735;51.432;5.482;2024-03-23T01:05:01;20.25;;;4.75;;
53833;SDS011;39735;51.432;5.482;2024-03-23T01:08:25;31.55;;;5.15;;
53833;SDS011;39735;51.432;5.482;2024-03-23T01:11:49;21.17;;;6.03;;
53833;SDS011;39735;51.432;5.482;2024-03-23T01:15:13;17.48;;;4.10;;
53833;SDS011;39735;51.432;5.482;2024-03-23T01:18:36;20.65;;;5.82;;
53833;SDS011;39735;51.432;5.482;2024-03-23T01:22:00;28.10;;;5.85;;
53833;SDS011;39735;51.432;5.482;2024-03-23T01:25:24;35.10;;;7.47;;
53833;SDS011;39735;51.432;5.482;2024-03-23T01:28:48;25.05;;;5.47;;
53833;SDS011;39735;51.432;5.482;2024-03-23T01:32:12;19.25;;;4.75;;
53833;SDS011;39735;51.432;5.482;2024-03-23T01:35:36;13.77;;;4.13;;
53833;SDS011;39735;51.432;5.482;2024-03-23T01:39:00;26.05;;;4.85;;
53833;SDS011;39735;51.432;5.482;2024-03-23T01:42:24;16.42;;;5.50;;
53833;SDS011;39735;51.432;5.482;2024-03-23T01:45:48;17.25;;;4.70;;
53833;SDS011;39735;51.432;5.482;2024-03-23T01:49:12;16.83;;;4.93;;
53833;SDS011;39735;51.432;5.482;2024-03-23T01:52:36;24.42;;;5.03;;
53833;SDS011;39735;51.432;5.482;2024-03-23T01:56:00;23.08;;;4.57;;
53833;SDS011;39735;51.432;5.482;2024-03-23T01:59:25;28.20;;;6.40;;
53833;SDS011;39735;51.432;5.482;2024-03-23T02:02:50;28.17;;;7.57;;
53833;SDS011;39735;51.432;5.482;2024-03-23T02:06:13;13.45;;;4.55;;
53833;SDS011;39735;51.432;5.482;2024-03-23T02:09:37;15.18;;;4.30;;
53833;SDS011;39735;51.432;5.482;2024-03-23T02:13:01;18.65;;;4.53;;
53833;SDS011;39735;51.432;5.482;2024-03-23T02:16:25;26.58;;;6.00;;
53833;SDS011;39735;51.432;5.482;2024-03-23T02:19:50;25.08;;;5.65;;
53833;SDS011;39735;51.432;5.482;2024-03-23T02:23:14;27.52;;;7.25;;
53833;SDS011;39735;51.432;5.482;2024-03-23T02:26:38;22.80;;;6.82;;
53833;SDS011;39735;51.432;5.482;2024-03-23T02:30:04;18.95;;;5.32;;
53833;SDS011;39735;51.432;5.482;2024-03-23T02:33:29;16.52;;;5.00;;
53833;SDS011;39735;51.432;5.482;2024-03-23T02:36:53;21.98;;;5.20;;
53833;SDS011;39735;51.432;5.482;2024-03-23T02:40:18;23.38;;;4.97;;
53833;SDS011;39735;51.432;5.482;2024-03-23T02:43:48;22.65;;;7.32;;
53833;SDS011;39735;51.432;5.482;2024-03-23T02:47:12;15.85;;;4.18;;
53833;SDS011;39735;51.432;5.482;2024-03-23T02:50:36;14.32;;;3.70;;
53833;SDS011;39735;51.432;5.482;2024-03-23T02:54:00;27.70;;;5.40;;
53833;SDS011;39735;51.432;5.482;2024-03-23T02:57:23;14.75;;;4.50;;
53833;SDS011;39735;51.432;5.482;2024-03-23T03:00:47;25.80;;;5.07;;
53833;SDS011;39735;51.432;5.482;2024-03-23T03:04:11;19.48;;;4.88;;
53833;SDS011;39735;51.432;5.482;2024-03-23T03:07:36;30.98;;;5.55;;
53833;SDS011;39735;51.432;5.482;2024-03-23T03:10:59;25.77;;;6.82;;
53833;SDS011;39735;51.432;5.482;2024-03-23T03:14:23;16.58;;;4.75;;
53833;SDS011;39735;51.432;5.482;2024-03-23T03:17:47;13.25;;;3.78;;
53833;SDS011;39735;51.432;5.482;2024-03-23T03:21:11;17.05;;;4.47;;
53833;SDS011;39735;51.432;5.482;2024-03-23T03:24:36;14.52;;;3.53;;
53833;SDS011;39735;51.432;5.482;2024-03-23T03:27:59;20.30;;;5.38;;
53833;SDS011;39735;51.432;5.482;2024-03-23T03:31:23;20.02;;;5.47;;
53833;SDS011;39735;51.432;5.482;2024-03-23T03:34:47;25.95;;;6.97;;
53833;SDS011;39735;51.432;5.482;2024-03-23T03:38:11;15.98;;;4.45;;
53833;SDS011;39735;51.432;5.482;2024-03-23T03:41:35;25.90;;;4.18;;
53833;SDS011;39735;51.432;5.482;2024-03-23T03:44:59;20.67;;;5.82;;
53833;SDS011;39735;51.432;5.482;2024-03-23T03:48:24;21.27;;;6.65;;
53833;SDS011;39735;51.432;5.482;2024-03-23T03:51:47;17.30;;;4.55;;
53833;SDS011;39735;51.432;5.482;2024-03-23T03:55:12;17.77;;;4.65;;
53833;SDS011;39735;51.432;5.482;2024-03-23T03:58:36;17.00;;;4.30;;
53833;SDS011;39735;51.432;5.482;2024-03-23T04:02:00;20.80;;;3.83;;
53833;SDS011;39735;51.432;5.482;2024-03-23T04:05:24;16.60;;;4.22;;
53833;SDS011;39735;51.432;5.482;2024-03-23T04:08:48;15.07;;;4.85;;
53833;SDS011;39735;51.432;5.482;2024-03-23T04:12:12;19.98;;;4.80;;
53833;SDS011;39735;51.432;5.482;2024-03-23T04:15:36;19.65;;;3.83;;
53833;SDS011;39735;51.432;5.482;2024-03-23T04:19:01;27.73;;;7.60;;
53833;SDS011;39735;51.432;5.482;2024-03-23T04:22:26;20.65;;;6.03;;
53833;SDS011;39735;51.432;5.482;2024-03-23T04:25:49;16.88;;;4.07;;
53833;SDS011;39735;51.432;5.482;2024-03-23T04:29:13;12.32;;;3.10;;
53833;SDS011;39735;51.432;5.482;2024-03-23T04:32:37;37.38;;;5.00;;
53833;SDS011;39735;51.432;5.482;2024-03-23T04:36:01;18.65;;;4.63;;
53833;SDS011;39735;51.432;5.482;2024-03-23T04:39:25;14.35;;;4.35;;
53833;SDS011;39735;51.432;5.482;2024-03-23T04:42:49;24.70;;;5.30;;
53833;SDS011;39735;51.432;5.482;2024-03-23T04:46:13;21.35;;;6.30;;
53833;SDS011;39735;51.432;5.482;2024-03-23T04:49:37;23.42;;;4.05;;
53833;SDS011;39735;51.432;5.482;2024-03-23T04:53:01;23.08;;;6.15;;
53833;SDS011;39735;51.432;5.482;2024-03-23T04:56:25;22.02;;;6.82;;
53833;SDS011;39735;51.432;5.482;2024-03-23T04:59:49;31.45;;;8.38;;
53833;SDS011;39735;51.432;5.482;2024-03-23T05:03:13;44.00;;;7.65;;
53833;SDS011;39735;51.432;5.482;2024-03-23T05:06:37;34.88;;;8.82;;
53833;SDS011;39735;51.432;5.482;2024-03-23T05:10:00;24.50;;;7.97;;
53833;SDS011;39735;51.432;5.482;2024-03-23T05:13:24;47.47;;;11.15;;
53833;SDS011;39735;51.432;5.482;2024-03-23T05:16:48;21.90;;;8.68;;
53833;SDS011;39735;51.432;5.482;2024-03-23T05:20:12;20.70;;;9.20;;
53833;SDS011;39735;51.432;5.482;2024-03-23T05:23:36;26.50;;;9.77;;
53833;SDS011;39735;51.432;5.482;2024-03-23T05:27:00;40.10;;;12.68;;
53833;SDS011;39735;51.432;5.482;2024-03-23T05:30:23;39.17;;;11.32;;
53833;SDS011;39735;51.432;5.482;2024-03-23T05:33:48;42.20;;;11.48;;
53833;SDS011;39735;51.432;5.482;2024-03-23T05:37:12;26.63;;;8.32;;
53833;SDS011;39735;51.432;5.482;2024-03-23T05:40:36;30.25;;;10.38;;
53833;SDS011;39735;51.432;5.482;2024-03-23T05:44:01;28.15;;;10.43;;
53833;SDS011;39735;51.432;5.482;2024-03-23T05:47:25;30.05;;;9.50;;
53833;SDS011;39735;51.432;5.482;2024-03-23T05:50:49;39.60;;;10.15;;
53833;SDS011;39735;51.432;5.482;2024-03-23T05:54:13;21.23;;;8.18;;
53833;SDS011;39735;51.432;5.482;2024-03-23T05:57:37;37.92;;;12.10;;
53833;SDS011;39735;51.432;5.482;2024-03-23T06:01:01;23.30;;;8.65;;
53833;SDS011;39735;51.432;5.482;2024-03-23T06:04:25;26.95;;;9.05;;
53833;SDS011;39735;51.432;5.482;2024-03-23T06:07:49;54.78;;;11.65;;
53833;SDS011;39735;51.432;5.482;2024-03-23T06:11:13;28.85;;;9.75;;
53833;SDS011;39735;51.432;5.482;2024-03-23T06:14:37;26.23;;;9.07;;
53833;SDS011;39735;51.432;5.482;2024-03-23T06:18:02;66.10;;;11.82;;
53833;SDS011;39735;51.432;5.482;2024-03-23T06:21:29;36.75;;;8.00;;
53833;SDS011;39735;51.432;5.482;2024-03-23T06:24:53;30.30;;;8.38;;
53833;SDS011;39735;51.432;5.482;2024-03-23T06:28:17;28.77;;;10.48;;
53833;SDS011;39735;51.432;5.482;2024-03-23T06:31:41;28.65;;;9.48;;
53833;SDS011;39735;51.432;5.482;2024-03-23T06:35:05;22.08;;;8.40;;
53833;SDS011;39735;51.432;5.482;2024-03-23T06:38:29;21.92;;;7.72;;
53833;SDS011;39735;51.432;5.482;2024-03-23T06:41:53;43.03;;;10.70;;
53833;SDS011;39735;51.432;5.482;2024-03-23T06:45:18;38.10;;;9.05;;
53833;SDS011;39735;51.432;5.482;2024-03-23T06:48:42;20.50;;;6.70;;
53833;SDS011;39735;51.432;5.482;2024-03-23T06:52:05;39.08;;;10.68;;
53833;SDS011;39735;51.432;5.482;2024-03-23T06:55:30;23.85;;;7.88;;
53833;SDS011;39735;51.432;5.482;2024-03-23T06:58:54;50.20;;;10.65;;
53833;SDS011;39735;51.432;5.482;2024-03-23T07:02:18;48.17;;;8.70;;
53833;SDS011;39735;51.432;5.482;2024-03-23T07:05:42;40.65;;;8.38;;
53833;SDS011;39735;51.432;5.482;2024-03-23T07:09:09;30.67;;;7.43;;
53833;SDS011;39735;51.432;5.482;2024-03-23T07:12:33;33.00;;;9.43;;
53833;SDS011;39735;51.432;5.482;2024-03-23T07:15:57;39.83;;;8.80;;
53833;SDS011;39735;51.432;5.482;2024-03-23T07:19:22;29.63;;;9.50;;
53833;SDS011;39735;51.432;5.482;2024-03-23T07:22:46;40.30;;;9.85;;
53833;SDS011;39735;51.432;5.482;2024-03-23T07:26:10;34.88;;;9.82;;
53833;SDS011;39735;51.432;5.482;2024-03-23T07:29:35;42.08;;;10.65;;
53833;SDS011;39735;51.432;5.482;2024-03-23T07:32:59;26.20;;;6.70;;
53833;SDS011;39735;51.432;5.482;2024-03-23T07:36:23;34.03;;;8.00;;
53833;SDS011;39735;51.432;5.482;2024-03-23T07:39:47;31.27;;;7.20;;
53833;SDS011;39735;51.432;5.482;2024-03-23T07:43:11;34.88;;;6.75;;
53833;SDS011;39735;51.432;5.482;2024-03-23T07:46:35;35.60;;;10.48;;
53833;SDS011;39735;51.432;5.482;2024-03-23T07:49:59;51.88;;;8.75;;
53833;SDS011;39735;51.432;5.482;2024-03-23T07:53:26;35.03;;;7.03;;
53833;SDS011;39735;51.432;5.482;2024-03-23T07:56:49;22.45;;;6.95;;
53833;SDS011;39735;51.432;5.482;2024-03-23T08:00:14;37.08;;;7.15;;
53833;SDS011;39735;51.432;5.482;2024-03-23T08:03:40;35.43;;;6.07;;
53833;SDS011;39735;51.432;5.482;2024-03-23T08:07:04;42.65;;;9.63;;
53833;SDS011;39735;51.432;5.482;2024-03-23T08:10:28;28.92;;;6.45;;
53833;SDS011;39735;51.432;5.482;2024-03-23T08:13:52;17.38;;;5.35;;
53833;SDS011;39735;51.432;5.482;2024-03-23T08:17:16;36.30;;;7.30;;
53833;SDS011;39735;51.432;5.482;2024-03-23T08:20:41;31.42;;;6.20;;
53833;SDS011;39735;51.432;5.482;2024-03-23T08:24:05;38.85;;;8.30;;
53833;SDS011;39735;51.432;5.482;2024-03-23T08:27:29;26.33;;;6.47;;
53833;SDS011;39735;51.432;5.482;2024-03-23T08:30:53;46.13;;;6.97;;
53833;SDS011;39735;51.432;5.482;2024-03-23T08:34:17;16.77;;;4.63;;
53833;SDS011;39735;51.432;5.482;2024-03-23T08:37:41;33.88;;;6.20;;
53833;SDS011;39735;51.432;5.482;2024-03-23T08:41:06;27.85;;;5.43;;
53833;SDS011;39735;51.432;5.482;2024-03-23T08:44:30;27.42;;;4.57;;
53833;SDS011;39735;51.432;5.482;2024-03-23T08:47:54;23.92;;;4.68;;
53833;SDS011;39735;51.432;5.482;2024-03-23T08:51:18;26.83;;;4.05;;
53833;SDS011;39735;51.432;5.482;2024-03-23T08:54:42;25.95;;;4.63;;
53833;SDS011;39735;51.432;5.482;2024-03-23T08:58:05;21.60;;;4.47;;
53833;SDS011;39735;51.432;5.482;2024-03-23T09:01:29;25.08;;;5.75;;
53833;SDS011;39735;51.432;5.482;2024-03-23T09:04:53;48.05;;;8.23;;
53833;SDS011;39735;51.432;5.482;2024-03-23T09:08:18;27.58;;;4.28;;
53833;SDS011;39735;51.432;5.482;2024-03-23T09:11:42;10.02;;;1.60;;
53833;SDS011;39735;51.432;5.482;2024-03-23T09:15:06;9.10;;;1.67;;
53833;SDS011;39735;51.432;5.482;2024-03-23T09:18:34;3.78;;;0.82;;
53833;SDS011;39735;51.432;5.482;2024-03-23T09:21:58;4.95;;;1.08;;
53833;SDS011;39735;51.432;5.482;2024-03-23T09:25:22;11.75;;;2.53;;
53833;SDS011;39735;51.432;5.482;2024-03-23T09:28:48;11.10;;;2.42;;
53833;SDS011;39735;51.432;5.482;2024-03-23T09:35:39;19.30;;;3.47;;
53833;SDS011;39735;51.432;5.482;2024-03-23T09:39:03;9.15;;;2.45;;
53833;SDS011;39735;51.432;5.482;2024-03-23T09:42:28;12.18;;;2.95;;
53833;SDS011;39735;51.432;5.482;2024-03-23T09:45:52;24.42;;;3.38;;
53833;SDS011;39735;51.432;5.482;2024-03-23T09:49:16;25.35;;;4.07;;
53833;SDS011;39735;51.432;5.482;2024-03-23T09:52:40;18.00;;;3.78;;
53833;SDS011;39735;51.432;5.482;2024-03-23T09:56:04;14.38;;;3.47;;
53833;SDS011;39735;51.432;5.482;2024-03-23T09:59:29;11.23;;;2.47;;
53833;SDS011;39735;51.432;5.482;2024-03-23T10:02:55;19.42;;;3.28;;
53833;SDS011;39735;51.432;5.482;2024-03-23T10:09:47;27.45;;;3.67;;
53833;SDS011;39735;51.432;5.482;2024-03-23T10:13:11;13.13;;;2.80;;
53833;SDS011;39735;51.432;5.482;2024-03-23T10:16:59;17.38;;;1.92;;
53833;SDS011;39735;51.432;5.482;2024-03-23T10:20:40;13.43;;;3.00;;
53833;SDS011;39735;51.432;5.482;2024-03-23T10:24:08;7.82;;;1.80;;
53833;SDS011;39735;51.432;5.482;2024-03-23T10:27:35;9.32;;;2.10;;
53833;SDS011;39735;51.432;5.482;2024-03-23T10:30:59;12.45;;;2.15;;
53833;SDS011;39735;51.432;5.482;2024-03-23T10:34:38;10.57;;;2.33;;
53833;SDS011;39735;51.432;5.482;2024-03-23T10:38:04;19.95;;;1.88;;
53833;SDS011;39735;51.432;5.482;2024-03-23T10:41:29;14.45;;;3.38;;
53833;SDS011;39735;51.432;5.482;2024-03-23T10:44:55;16.25;;;2.97;;
53833;SDS011;39735;51.432;5.482;2024-03-23T10:48:19;24.95;;;2.83;;
53833;SDS011;39735;51.432;5.482;2024-03-23T10:51:43;19.55;;;4.03;;
53833;SDS011;39735;51.432;5.482;2024-03-23T10:55:07;11.18;;;2.78;;
53833;SDS011;39735;51.432;5.482;2024-03-23T11:01:59;20.92;;;4.10;;
53833;SDS011;39735;51.432;5.482;2024-03-23T11:09:03;20.17;;;6.15;;
53833;SDS011;39735;51.432;5.482;2024-03-23T11:12:31;15.30;;;3.17;;
53833;SDS011;39735;51.432;5.482;2024-03-23T11:15:55;20.08;;;4.28;;
53833;SDS011;39735;51.432;5.482;2024-03-23T11:19:35;17.45;;;3.20;;
53833;SDS011;39735;51.432;5.482;2024-03-23T11:23:00;20.45;;;4.55;;
53833;SDS011;39735;51.432;5.482;2024-03-23T11:26:39;14.00;;;3.72;;
53833;SDS011;39735;51.432;5.482;2024-03-23T11:30:37;21.33;;;5.80;;
53833;SDS011;39735;51.432;5.482;2024-03-23T11:34:02;23.25;;;5.95;;
53833;SDS011;39735;51.432;5.482;2024-03-23T11:37:26;14.10;;;2.78;;
53833;SDS011;39735;51.432;5.482;2024-03-23T11:40:50;12.68;;;2.30;;
53833;SDS011;39735;51.432;5.482;2024-03-23T11:44:21;27.67;;;5.90;;
53833;SDS011;39735;51.432;5.482;2024-03-23T11:47:45;16.30;;;2.45;;
53833;SDS011;39735;51.432;5.482;2024-03-23T11:51:14;16.42;;;1.70;;
53833;SDS011;39735;51.432;5.482;2024-03-23T11:54:38;10.82;;;2.45;;
53833;SDS011;39735;51.432;5.482;2024-03-23T11:58:06;9.55;;;2.05;;
53833;SDS011;39735;51.432;5.482;2024-03-23T12:01:31;3.85;;;0.70;;
53833;SDS011;39735;51.432;5.482;2024-03-23T12:04:55;9.65;;;2.10;;
53833;SDS011;39735;51.432;5.482;2024-03-23T12:08:20;13.80;;;0.60;;
53833;SDS011;39735;51.432;5.482;2024-03-23T12:11:44;6.05;;;1.80;;
53833;SDS011;39735;51.432;5.482;2024-03-23T12:15:08;15.32;;;2.78;;
53833;SDS011;39735;51.432;5.482;2024-03-23T12:18:43;11.45;;;1.70;;
53833;SDS011;39735;51.432;5.482;2024-03-23T12:22:10;12.68;;;1.67;;
53833;SDS011;39735;51.432;5.482;2024-03-23T12:25:38;9.02;;;1.23;;
53833;SDS011;39735;51.432;5.482;2024-03-23T12:29:03;4.47;;;1.52;;
53833;SDS011;39735;51.432;5.482;2024-03-23T12:32:29;13.90;;;2.42;;
53833;SDS011;39735;51.432;5.482;2024-03-23T12:35:53;11.18;;;1.77;;
53833;SDS011;39735;51.432;5.482;2024-03-23T12:39:17;16.95;;;2.58;;
53833;SDS011;39735;51.432;5.482;2024-03-23T12:42:41;12.57;;;2.20;;
53833;SDS011;39735;51.432;5.482;2024-03-23T12:46:05;8.18;;;2.72;;
53833;SDS011;39735;51.432;5.482;2024-03-23T12:49:28;7.13;;;1.42;;
53833;SDS011;39735;51.432;5.482;2024-03-23T12:52:53;4.97;;;1.25;;
53833;SDS011;39735;51.432;5.482;2024-03-23T12:56:17;6.80;;;0.88;;
53833;SDS011;39735;51.432;5.482;2024-03-23T12:59:40;14.63;;;1.98;;
53833;SDS011;39735;51.432;5.482;2024-03-23T13:03:04;0.88;;;0.40;;
53833;SDS011;39735;51.432;5.482;2024-03-23T13:06:28;3.50;;;0.50;;
53833;SDS011;39735;51.432;5.482;2024-03-23T13:09:53;3.65;;;1.38;;
53833;SDS011;39735;51.432;5.482;2024-03-23T13:13:17;2.53;;;0.60;;
53833;SDS011;39735;51.432;5.482;2024-03-23T13:16:42;2.70;;;1.52;;
53833;SDS011;39735;51.432;5.482;2024-03-23T13:20:06;9.23;;;1.63;;
53833;SDS011;39735;51.432;5.482;2024-03-23T13:23:30;11.63;;;1.73;;
53833;SDS011;39735;51.432;5.482;2024-03-23T13:26:54;11.85;;;2.17;;
53833;SDS011;39735;51.432;5.482;2024-03-23T13:30:18;21.83;;;4.30;;
53833;SDS011;39735;51.432;5.482;2024-03-23T13:33:42;6.13;;;1.88;;
53833;SDS011;39735;51.432;5.482;2024-03-23T13:37:06;3.35;;;1.50;;
53833;SDS011;39735;51.432;5.482;2024-03-23T13:40:30;6.28;;;0.82;;
53833;SDS011;39735;51.432;5.482;2024-03-23T13:43:54;15.38;;;1.27;;
53833;SDS011;39735;51.432;5.482;2024-03-23T13:47:18;6.80;;;1.38;;
53833;SDS011;39735;51.432;5.482;2024-03-23T13:50:43;2.85;;;0.88;;
53833;SDS011;39735;51.432;5.482;2024-03-23T13:54:08;15.25;;;2.15;;
53833;SDS011;39735;51.432;5.482;2024-03-23T13:57:33;8.30;;;1.63;;
53833;SDS011;39735;51.432;5.482;2024-03-23T14:00:58;10.23;;;2.50;;
53833;SDS011;39735;51.432;5.482;2024-03-23T14:04:21;22.27;;;5.00;;
53833;SDS011;39735;51.432;5.482;2024-03-23T14:07:45;12.05;;;2.90;;
53833;SDS011;39735;51.432;5.482;2024-03-23T14:11:09;20.65;;;6.07;;
53833;SDS011;39735;51.432;5.482;2024-03-23T14:14:34;25.90;;;5.32;;
53833;SDS011;39735;51.432;5.482;2024-03-23T14:17:58;14.75;;;2.70;;
53833;SDS011;39735;51.432;5.482;2024-03-23T14:21:22;22.35;;;3.92;;
53833;SDS011;39735;51.432;5.482;2024-03-23T14:24:47;10.75;;;2.08;;
53833;SDS011;39735;51.432;5.482;2024-03-23T14:28:11;20.85;;;3.58;;
53833;SDS011;39735;51.432;5.482;2024-03-23T14:31:35;16.42;;;3.25;;
53833;SDS011;39735;51.432;5.482;2024-03-23T14:35:00;16.98;;;3.05;;
53833;SDS011;39735;51.432;5.482;2024-03-23T14:38:24;10.68;;;1.88;;
53833;SDS011;39735;51.432;5.482;2024-03-23T14:41:49;14.00;;;2.53;;
53833;SDS011;39735;51.432;5.482;2024-03-23T14:45:14;12.82;;;3.05;;
53833;SDS011;39735;51.432;5.482;2024-03-23T14:48:39;7.90;;;1.73;;
53833;SDS011;39735;51.432;5.482;2024-03-23T14:52:03;14.10;;;2.75;;
53833;SDS011;39735;51.432;5.482;2024-03-23T14:55:27;12.27;;;2.30;;
53833;SDS011;39735;51.432;5.482;2024-03-23T14:58:54;19.38;;;3.47;;
53833;SDS011;39735;51.432;5.482;2024-03-23T15:02:18;16.90;;;2.90;;
53833;SDS011;39735;51.432;5.482;2024-03-23T15:30:31;24.88;;;3.42;;
53833;SDS011;39735;51.432;5.482;2024-03-23T15:33:56;12.85;;;3.88;;
53833;SDS011;39735;51.432;5.482;2024-03-23T15:37:19;13.65;;;2.92;;
53833;SDS011;39735;51.432;5.482;2024-03-23T15:40:50;18.65;;;2.33;;
53833;SDS011;39735;51.432;5.482;2024-03-23T15:44:14;7.35;;;2.80;;
53833;SDS011;39735;51.432;5.482;2024-03-23T15:47:38;12.43;;;1.35;;
53833;SDS011;39735;51.432;5.482;2024-03-23T15:51:02;5.22;;;1.50;;
53833;SDS011;39735;51.432;5.482;2024-03-23T15:54:26;6.35;;;1.10;;
53833;SDS011;39735;51.432;5.482;2024-03-23T15:57:50;12.85;;;1.45;;
53833;SDS011;39735;51.432;5.482;2024-03-23T16:01:14;4.93;;;0.68;;
53833;SDS011;39735;51.432;5.482;2024-03-23T16:04:38;3.30;;;1.08;;
53833;SDS011;39735;51.432;5.482;2024-03-23T16:08:02;1.40;;;0.82;;
53833;SDS011;39735;51.432;5.482;2024-03-23T16:11:26;4.45;;;1.40;;
53833;SDS011;39735;51.432;5.482;2024-03-23T16:14:50;1.40;;;0.63;;
53833;SDS011;39735;51.432;5.482;2024-03-23T16:18:20;4.55;;;1.50;;
53833;SDS011;39735;51.432;5.482;2024-03-23T16:21:44;3.33;;;1.50;;
53833;SDS011;39735;51.432;5.482;2024-03-23T16:25:08;6.95;;;1.52;;
53833;SDS011;39735;51.432;5.482;2024-03-23T16:28:33;4.10;;;0.77;;
53833;SDS011;39735;51.432;5.482;2024-03-23T16:31:57;3.20;;;1.00;;
53833;SDS011;39735;51.432;5.482;2024-03-23T16:35:20;17.98;;;1.63;;
53833;SDS011;39735;51.432;5.482;2024-03-23T16:38:44;3.85;;;1.17;;
53833;SDS011;39735;51.432;5.482;2024-03-23T16:42:09;4.45;;;1.40;;
53833;SDS011;39735;51.432;5.482;2024-03-23T16:45:33;10.30;;;4.63;;
53833;SDS011;39735;51.432;5.482;2024-03-23T16:48:56;14.90;;;6.00;;
53833;SDS011;39735;51.432;5.482;2024-03-23T16:52:22;10.40;;;3.15;;
53833;SDS011;39735;51.432;5.482;2024-03-23T16:55:45;6.20;;;4.60;;
53833;SDS011;39735;51.432;5.482;2024-03-23T16:59:09;19.45;;;8.07;;
53833;SDS011;39735;51.432;5.482;2024-03-23T17:06:03;23.60;;;12.27;;
53833;SDS011;39735;51.432;5.482;2024-03-23T17:09:28;9.68;;;6.07;;
53833;SDS011;39735;51.432;5.482;2024-03-23T17:12:52;13.48;;;4.28;;
53833;SDS011;39735;51.432;5.482;2024-03-23T17:16:21;14.05;;;6.55;;
53833;SDS011;39735;51.432;5.482;2024-03-23T17:19:45;12.20;;;2.80;;
53833;SDS011;39735;51.432;5.482;2024-03-23T17:23:10;8.77;;;2.97;;
53833;SDS011;39735;51.432;5.482;2024-03-23T17:26:34;28.77;;;5.93;;
53833;SDS011;39735;51.432;5.482;2024-03-23T17:29:58;15.88;;;3.55;;
53833;SDS011;39735;51.432;5.482;2024-03-23T17:33:22;23.02;;;5.22;;
53833;SDS011;39735;51.432;5.482;2024-03-23T17:36:45;14.75;;;4.50;;
53833;SDS011;39735;51.432;5.482;2024-03-23T17:40:09;10.45;;;4.07;;
53833;SDS011;39735;51.432;5.482;2024-03-23T17:43:37;8.60;;;3.58;;
53833;SDS011;39735;51.432;5.482;2024-03-23T17:47:01;8.18;;;3.78;;
53833;SDS011;39735;51.432;5.482;2024-03-23T17:50:25;12.38;;;2.97;;
53833;SDS011;39735;51.432;5.482;2024-03-23T17:53:49;12.57;;;3.95;;
53833;SDS011;39735;51.432;5.482;2024-03-23T17:57:14;15.98;;;3.35;;
53833;SDS011;39735;51.432;5.482;2024-03-23T18:00:38;7.95;;;2.33;;
53833;SDS011;39735;51.432;5.482;2024-03-23T18:04:02;12.32;;;2.35;;
53833;SDS011;39735;51.432;5.482;2024-03-23T18:07:26;8.60;;;3.63;;
53833;SDS011;39735;51.432;5.482;2024-03-23T18:10:51;15.75;;;4.65;;
53833;SDS011;39735;51.432;5.482;2024-03-23T18:14:14;10.25;;;2.78;;
53833;SDS011;39735;51.432;5.482;2024-03-23T18:17:38;16.90;;;4.82;;
53833;SDS011;39735;51.432;5.482;2024-03-23T18:21:02;12.43;;;3.17;;
53833;SDS011;39735;51.432;5.482;2024-03-23T18:24:26;11.05;;;2.55;;
53833;SDS011;39735;51.432;5.482;2024-03-23T18:27:51;10.38;;;3.47;;
53833;SDS011;39735;51.432;5.482;2024-03-23T18:31:16;4.22;;;2.40;;
53833;SDS011;39735;51.432;5.482;2024-03-23T18:34:40;16.92;;;2.60;;
53833;SDS011;39735;51.432;5.482;2024-03-23T18:38:04;5.95;;;2.78;;
53833;SDS011;39735;51.432;5.482;2024-03-23T18:41:29;6.88;;;3.22;;
53833;SDS011;39735;51.432;5.482;2024-03-23T18:44:52;13.15;;;5.00;;
53833;SDS011;39735;51.432;5.482;2024-03-23T18:48:19;12.82;;;3.65;;
53833;SDS011;39735;51.432;5.482;2024-03-23T18:51:44;11.05;;;3.50;;
53833;SDS011;39735;51.432;5.482;2024-03-23T18:55:08;10.60;;;4.18;;
53833;SDS011;39735;51.432;5.482;2024-03-23T18:58:32;14.82;;;7.47;;
53833;SDS011;39735;51.432;5.482;2024-03-23T19:01:55;23.23;;;8.07;;
53833;SDS011;39735;51.432;5.482;2024-03-23T19:05:19;20.17;;;9.48;;
53833;SDS011;39735;51.432;5.482;2024-03-23T19:08:43;29.33;;;8.50;;
53833;SDS011;39735;51.432;5.482;2024-03-23T19:12:07;27.02;;;8.95;;
53833;SDS011;39735;51.432;5.482;2024-03-23T19:15:32;10.52;;;5.88;;
53833;SDS011;39735;51.432;5.482;2024-03-23T19:18:56;16.83;;;8.57;;
53833;SDS011;39735;51.432;5.482;2024-03-23T19:22:20;14.63;;;7.63;;
53833;SDS011;39735;51.432;5.482;2024-03-23T19:25:44;27.77;;;5.88;;
53833;SDS011;39735;51.432;5.482;2024-03-23T19:29:14;10.65;;;4.72;;
53833;SDS011;39735;51.432;5.482;2024-03-23T19:32:39;8.48;;;2.88;;
53833;SDS011;39735;51.432;5.482;2024-03-23T19:36:03;10.73;;;4.38;;
53833;SDS011;39735;51.432;5.482;2024-03-23T19:39:28;14.23;;;4.38;;
53833;SDS011;39735;51.432;5.482;2024-03-23T19:42:51;18.92;;;6.68;;
53833;SDS011;39735;51.432;5.482;2024-03-23T19:46:15;16.33;;;6.18;;
53833;SDS011;39735;51.432;5.482;2024-03-23T19:49:39;22.75;;;5.38;;
53833;SDS011;39735;51.432;5.482;2024-03-23T19:53:03;13.40;;;6.55;;
53833;SDS011;39735;51.432;5.482;2024-03-23T19:56:27;14.80;;;5.07;;
53833;SDS011;39735;51.432;5.482;2024-03-23T19:59:51;43.53;;;5.88;;
53833;SDS011;39735;51.432;5.482;2024-03-23T20:03:15;8.07;;;4.45;;
53833;SDS011;39735;51.432;5.482;2024-03-23T20:06:39;5.07;;;3.72;;
53833;SDS011;39735;51.432;5.482;2024-03-23T20:10:03;15.25;;;4.38;;
53833;SDS011;39735;51.432;5.482;2024-03-23T20:13:28;5.10;;;3.08;;
53833;SDS011;39735;51.432;5.482;2024-03-23T20:16:52;18.13;;;4.05;;
53833;SDS011;39735;51.432;5.482;2024-03-23T20:20:16;13.60;;;2.78;;
53833;SDS011;39735;51.432;5.482;2024-03-23T20:23:40;9.40;;;3.92;;
53833;SDS011;39735;51.432;5.482;2024-03-23T20:27:04;6.72;;;2.15;;
53833;SDS011;39735;51.432;5.482;2024-03-23T20:30:28;4.65;;;2.25;;
53833;SDS011;39735;51.432;5.482;2024-03-23T20:33:52;11.25;;;2.72;;
53833;SDS011;39735;51.432;5.482;2024-03-23T20:37:16;4.95;;;2.15;;
53833;SDS011;39735;51.432;5.482;2024-03-23T20:40:40;6.53;;;1.58;;
53833;SDS011;39735;51.432;5.482;2024-03-23T20:44:04;11.80;;;3.28;;
53833;SDS011;39735;51.432;5.482;2024-03-23T20:47:29;16.65;;;4.55;;
53833;SDS011;39735;51.432;5.482;2024-03-23T20:51:00;3.22;;;2.85;;
53833;SDS011;39735;51.432;5.482;2024-03-23T20:54:25;26.40;;;3.83;;
53833;SDS011;39735;51.432;5.482;2024-03-23T20:57:50;14.68;;;5.75;;
53833;SDS011;39735;51.432;5.482;2024-03-23T21:01:13;10.30;;;4.28;;
53833;SDS011;39735;51.432;5.482;2024-03-23T21:04:37;3.97;;;2.78;;
53833;SDS011;39735;51.432;5.482;2024-03-23T21:08:01;7.07;;;2.28;;
53833;SDS011;39735;51.432;5.482;2024-03-23T21:11:25;3.72;;;1.63;;
53833;SDS011;39735;51.432;5.482;2024-03-23T21:14:50;6.00;;;1.85;;
53833;SDS011;39735;51.432;5.482;2024-03-23T21:18:14;6.70;;;2.17;;
53833;SDS011;39735;51.432;5.482;2024-03-23T21:21:38;10.30;;;3.40;;
53833;SDS011;39735;51.432;5.482;2024-03-23T21:25:02;5.70;;;1.65;;
53833;SDS011;39735;51.432;5.482;2024-03-23T21:28:27;3.35;;;1.85;;
53833;SDS011;39735;51.432;5.482;2024-03-23T21:31:51;3.35;;;1.58;;
53833;SDS011;39735;51.432;5.482;2024-03-23T21:35:16;3.80;;;2.40;;
53833;SDS011;39735;51.432;5.482;2024-03-23T21:38:40;3.15;;;2.45;;
53833;SDS011;39735;51.432;5.482;2024-03-23T21:42:04;8.73;;;3.28;;
53833;SDS011;39735;51.432;5.482;2024-03-23T21:45:30;18.08;;;3.85;;
53833;SDS011;39735;51.432;5.482;2024-03-23T21:48:54;9.27;;;2.80;;
53833;SDS011;39735;51.432;5.482;2024-03-23T21:52:18;7.63;;;2.47;;